sensor_id;sensor_type;location;lat;lon;timestamp;pressure;altitude;pressure_sealevel;temperature;humidity
54592;BME280;40488;48.558;18.150;2023-04-04T00:01:09;99959.44;;;2.47;52.71
54592;BME280;40488;48.558;18.150;2023-04-04T00:03:39;99960.38;;;2.49;53.28
54592;BME280;40488;48.558;18.150;2023-04-04T00:06:08;99967.91;;;2.49;52.36
54592;BME280;40488;48.558;18.150;2023-04-04T00:08:37;99962.81;;;2.48;52.52
54592;BME280;40488;48.558;18.150;2023-04-04T00:11:05;99960.38;;;2.49;53.17
54592;BME280;40488;48.558;18.150;2023-04-04T00:13:34;99960.25;;;2.46;52.94
54592;BME280;40488;48.558;18.150;2023-04-04T00:16:05;99963.47;;;2.42;53.50
54592;BME280;40488;48.558;18.150;2023-04-04T00:18:34;99954.97;;;2.40;53.18
54592;BME280;40488;48.558;18.150;2023-04-04T00:21:03;99967.84;;;2.48;53.83
54592;BME280;40488;48.558;18.150;2023-04-04T00:23:32;99930.09;;;2.26;53.90
54592;BME280;40488;48.558;18.150;2023-04-04T00:26:01;99959.69;;;2.31;53.97
54592;BME280;40488;48.558;18.150;2023-04-04T00:28:29;99963.13;;;2.33;53.52
54592;BME280;40488;48.558;18.150;2023-04-04T00:30:59;99973.94;;;2.31;53.99
54592;BME280;40488;48.558;18.150;2023-04-04T00:33:30;99978.13;;;2.30;53.87
54592;BME280;40488;48.558;18.150;2023-04-04T00:35:59;99973.78;;;2.26;54.50
54592;BME280;40488;48.558;18.150;2023-04-04T00:38:27;99980.66;;;2.30;53.74
54592;BME280;40488;48.558;18.150;2023-04-04T00:40:56;99980.75;;;2.33;53.87
54592;BME280;40488;48.558;18.150;2023-04-04T00:43:26;99980.81;;;2.35;53.71
54592;BME280;40488;48.558;18.150;2023-04-04T00:45:55;99979.03;;;2.32;54.27
54592;BME280;40488;48.558;18.150;2023-04-04T00:48:24;99974.69;;;2.28;54.85
54592;BME280;40488;48.558;18.150;2023-04-04T00:50:55;99979.63;;;2.25;54.55
54592;BME280;40488;48.558;18.150;2023-04-04T00:53:24;99991.41;;;2.26;54.66
54592;BME280;40488;48.558;18.150;2023-04-04T00:55:53;99981.56;;;2.32;54.99
54592;BME280;40488;48.558;18.150;2023-04-04T00:58:23;99980.66;;;2.30;53.98
54592;BME280;40488;48.558;18.150;2023-04-04T01:00:54;99980.66;;;2.30;54.96
54592;BME280;40488;48.558;18.150;2023-04-04T01:03:23;99994.94;;;2.31;54.96
54592;BME280;40488;48.558;18.150;2023-04-04T01:05:52;99986.47;;;2.29;54.78
54592;BME280;40488;48.558;18.150;2023-04-04T01:08:25;99984.75;;;2.28;54.25
54592;BME280;40488;48.558;18.150;2023-04-04T01:10:54;99982.19;;;2.27;55.17
54592;BME280;40488;48.558;18.150;2023-04-04T01:13:23;99992.13;;;2.24;54.56
54592;BME280;40488;48.558;18.150;2023-04-04T01:15:52;99988.72;;;2.22;54.91
54592;BME280;40488;48.558;18.150;2023-04-04T01:18:21;99992.88;;;2.21;54.90
54592;BME280;40488;48.558;18.150;2023-04-04T01:20:55;99995.41;;;2.21;54.46
54592;BME280;40488;48.558;18.150;2023-04-04T01:23:35;99990.38;;;2.21;54.89
54592;BME280;40488;48.558;18.150;2023-04-04T01:26:14;99987.97;;;2.24;55.00
54592;BME280;40488;48.558;18.150;2023-04-04T01:28:44;99989.56;;;2.22;54.95
54592;BME280;40488;48.558;18.150;2023-04-04T01:31:14;99987.09;;;2.24;54.42
54592;BME280;40488;48.558;18.150;2023-04-04T01:33:53;99981.31;;;2.26;54.61
54592;BME280;40488;48.558;18.150;2023-04-04T01:36:28;99985.31;;;2.21;54.10
54592;BME280;40488;48.558;18.150;2023-04-04T01:39:06;99984.50;;;2.21;54.63
54592;BME280;40488;48.558;18.150;2023-04-04T01:41:39;99979.50;;;2.22;54.17
54592;BME280;40488;48.558;18.150;2023-04-04T01:44:10;99993.13;;;2.27;54.47
54592;BME280;40488;48.558;18.150;2023-04-04T01:46:39;99987.91;;;2.23;54.36
54592;BME280;40488;48.558;18.150;2023-04-04T01:49:09;99985.41;;;2.23;53.75
54592;BME280;40488;48.558;18.150;2023-04-04T01:51:39;99982.81;;;2.21;54.47
54592;BME280;40488;48.558;18.150;2023-04-04T01:54:08;99974.19;;;2.15;53.66
54592;BME280;40488;48.558;18.150;2023-04-04T01:56:38;99965.88;;;2.17;53.43
54592;BME280;40488;48.558;18.150;2023-04-04T01:59:07;99955.81;;;2.17;53.77
54592;BME280;40488;48.558;18.150;2023-04-04T02:01:36;99960.72;;;2.14;54.29
54592;BME280;40488;48.558;18.150;2023-04-04T02:04:06;99954.91;;;2.15;53.89
54592;BME280;40488;48.558;18.150;2023-04-04T02:06:38;99955.78;;;2.16;53.99
54592;BME280;40488;48.558;18.150;2023-04-04T02:09:08;99950.78;;;2.17;54.03
54592;BME280;40488;48.558;18.150;2023-04-04T02:11:38;99952.38;;;2.15;53.11
54592;BME280;40488;48.558;18.150;2023-04-04T02:14:07;99949.16;;;2.19;52.85
54592;BME280;40488;48.558;18.150;2023-04-04T02:16:36;99943.50;;;2.25;53.20
54592;BME280;40488;48.558;18.150;2023-04-04T02:19:05;99948.53;;;2.25;52.99
54592;BME280;40488;48.558;18.150;2023-04-04T02:21:36;99941.91;;;2.27;52.52
54592;BME280;40488;48.558;18.150;2023-04-04T02:24:06;99933.56;;;2.28;51.99
54592;BME280;40488;48.558;18.150;2023-04-04T02:26:34;99942.75;;;2.27;52.55
54592;BME280;40488;48.558;18.150;2023-04-04T02:29:06;99937.84;;;2.30;52.66
54592;BME280;40488;48.558;18.150;2023-04-04T02:31:36;99936.88;;;2.27;53.33
54592;BME280;40488;48.558;18.150;2023-04-04T02:34:07;99947.13;;;2.33;52.65
54592;BME280;40488;48.558;18.150;2023-04-04T02:36:37;99935.50;;;2.35;53.08
54592;BME280;40488;48.558;18.150;2023-04-04T02:39:05;99929.72;;;2.37;52.40
54592;BME280;40488;48.558;18.150;2023-04-04T02:41:38;99934.50;;;2.31;52.70
54592;BME280;40488;48.558;18.150;2023-04-04T02:44:10;99919.19;;;2.25;54.05
54592;BME280;40488;48.558;18.150;2023-04-04T02:46:39;99921.00;;;2.29;54.25
54592;BME280;40488;48.558;18.150;2023-04-04T02:49:12;99918.66;;;2.34;54.41
54592;BME280;40488;48.558;18.150;2023-04-04T02:51:46;99911.16;;;2.35;53.92
54592;BME280;40488;48.558;18.150;2023-04-04T02:54:15;99905.31;;;2.36;53.98
54592;BME280;40488;48.558;18.150;2023-04-04T02:56:46;99901.00;;;2.32;54.24
54592;BME280;40488;48.558;18.150;2023-04-04T02:59:16;99902.69;;;2.33;55.05
54592;BME280;40488;48.558;18.150;2023-04-04T03:01:46;99888.28;;;2.29;54.40
54592;BME280;40488;48.558;18.150;2023-04-04T03:04:15;99883.09;;;2.25;54.38
54592;BME280;40488;48.558;18.150;2023-04-04T03:06:45;99889.00;;;2.25;54.98
54592;BME280;40488;48.558;18.150;2023-04-04T03:09:15;99890.69;;;2.26;54.54
54592;BME280;40488;48.558;18.150;2023-04-04T03:11:43;99889.06;;;2.28;53.76
54592;BME280;40488;48.558;18.150;2023-04-04T03:14:13;99890.75;;;2.28;54.53
54592;BME280;40488;48.558;18.150;2023-04-04T03:16:43;99882.94;;;2.20;54.73
54592;BME280;40488;48.558;18.150;2023-04-04T03:19:12;99878.81;;;2.22;54.09
54592;BME280;40488;48.558;18.150;2023-04-04T03:21:41;99877.94;;;2.22;53.45
54592;BME280;40488;48.558;18.150;2023-04-04T03:24:10;99863.69;;;2.22;53.55
54592;BME280;40488;48.558;18.150;2023-04-04T03:26:39;99867.13;;;2.24;53.57
54592;BME280;40488;48.558;18.150;2023-04-04T03:29:11;99853.75;;;2.25;53.27
54592;BME280;40488;48.558;18.150;2023-04-04T03:31:40;99851.22;;;2.25;53.80
54592;BME280;40488;48.558;18.150;2023-04-04T03:34:11;99844.25;;;2.18;53.72
54592;BME280;40488;48.558;18.150;2023-04-04T03:36:40;99851.81;;;2.18;54.07
54592;BME280;40488;48.558;18.150;2023-04-04T03:39:09;99846.78;;;2.18;54.23
54592;BME280;40488;48.558;18.150;2023-04-04T03:41:37;99845.78;;;2.15;54.22
54592;BME280;40488;48.558;18.150;2023-04-04T03:44:07;99839.81;;;2.11;53.95
54592;BME280;40488;48.558;18.150;2023-04-04T03:46:36;99839.69;;;2.08;54.99
54592;BME280;40488;48.558;18.150;2023-04-04T03:49:05;99848.94;;;2.09;54.37
54592;BME280;40488;48.558;18.150;2023-04-04T03:51:35;99839.53;;;2.03;55.11
54592;BME280;40488;48.558;18.150;2023-04-04T03:54:04;99847.84;;;2.01;54.56
54592;BME280;40488;48.558;18.150;2023-04-04T03:56:33;99845.91;;;1.94;55.00
54592;BME280;40488;48.558;18.150;2023-04-04T03:59:04;99854.13;;;1.90;55.04
54592;BME280;40488;48.558;18.150;2023-04-04T04:01:33;99854.13;;;1.90;54.69
54592;BME280;40488;48.558;18.150;2023-04-04T04:04:02;99861.75;;;1.91;55.48
54592;BME280;40488;48.558;18.150;2023-04-04T04:06:31;99862.50;;;1.89;54.58
54592;BME280;40488;48.558;18.150;2023-04-04T04:09:02;99860.78;;;1.88;54.56
54592;BME280;40488;48.558;18.150;2023-04-04T04:11:30;99860.78;;;1.88;54.63
54592;BME280;40488;48.558;18.150;2023-04-04T04:13:59;99862.63;;;1.92;55.07
54592;BME280;40488;48.558;18.150;2023-04-04T04:16:30;99862.38;;;1.86;54.57
54592;BME280;40488;48.558;18.150;2023-04-04T04:18:59;99857.22;;;1.83;55.39
54592;BME280;40488;48.558;18.150;2023-04-04T04:21:40;99863.97;;;1.84;54.64
54592;BME280;40488;48.558;18.150;2023-04-04T04:24:12;99866.38;;;1.81;55.10
54592;BME280;40488;48.558;18.150;2023-04-04T04:26:41;99864.84;;;1.84;54.85
54592;BME280;40488;48.558;18.150;2023-04-04T04:29:14;99864.94;;;1.87;54.20
54592;BME280;40488;48.558;18.150;2023-04-04T04:31:43;99874.06;;;1.84;53.78
54592;BME280;40488;48.558;18.150;2023-04-04T04:34:13;99866.53;;;1.85;53.89
54592;BME280;40488;48.558;18.150;2023-04-04T04:36:42;99871.53;;;1.84;54.24
54592;BME280;40488;48.558;18.150;2023-04-04T04:39:23;99872.31;;;1.83;54.20
54592;BME280;40488;48.558;18.150;2023-04-04T04:42:04;99869.94;;;1.86;53.79
54592;BME280;40488;48.558;18.150;2023-04-04T04:44:36;99870.63;;;1.82;53.56
54592;BME280;40488;48.558;18.150;2023-04-04T04:47:05;99870.72;;;1.85;53.06
54592;BME280;40488;48.558;18.150;2023-04-04T04:49:34;99874.34;;;1.91;53.55
54592;BME280;40488;48.558;18.150;2023-04-04T04:52:07;99881.13;;;1.94;53.07
54592;BME280;40488;48.558;18.150;2023-04-04T04:54:42;99883.81;;;1.98;52.25
54592;BME280;40488;48.558;18.150;2023-04-04T04:57:12;99876.19;;;1.97;52.09
54592;BME280;40488;48.558;18.150;2023-04-04T04:59:43;99886.38;;;2.00;52.36
54592;BME280;40488;48.558;18.150;2023-04-04T05:02:14;99885.59;;;2.01;52.31
54592;BME280;40488;48.558;18.150;2023-04-04T05:04:46;99886.38;;;2.00;52.20
54592;BME280;40488;48.558;18.150;2023-04-04T05:07:16;99898.38;;;2.07;52.50
54592;BME280;40488;48.558;18.150;2023-04-04T05:09:48;99898.34;;;2.06;51.69
54592;BME280;40488;48.558;18.150;2023-04-04T05:12:21;99902.66;;;2.10;52.28
54592;BME280;40488;48.558;18.150;2023-04-04T05:14:52;99896.88;;;2.12;51.98
54592;BME280;40488;48.558;18.150;2023-04-04T05:17:21;99898.63;;;2.13;52.32
54592;BME280;40488;48.558;18.150;2023-04-04T05:19:53;99891.84;;;2.12;51.42
54592;BME280;40488;48.558;18.150;2023-04-04T05:22:22;99898.50;;;2.10;52.38
54592;BME280;40488;48.558;18.150;2023-04-04T05:24:53;99891.97;;;2.15;52.17
54592;BME280;40488;48.558;18.150;2023-04-04T05:27:24;99897.00;;;2.15;51.24
54592;BME280;40488;48.558;18.150;2023-04-04T05:29:58;99908.78;;;2.16;51.59
54592;BME280;40488;48.558;18.150;2023-04-04T05:32:37;99903.97;;;2.22;51.52
54592;BME280;40488;48.558;18.150;2023-04-04T05:35:11;99908.25;;;2.25;51.08
54592;BME280;40488;48.558;18.150;2023-04-04T05:37:41;99909.06;;;2.24;51.31
54592;BME280;40488;48.558;18.150;2023-04-04T05:40:16;99914.25;;;2.28;51.25
54592;BME280;40488;48.558;18.150;2023-04-04T05:42:54;99913.00;;;2.39;50.97
54592;BME280;40488;48.558;18.150;2023-04-04T05:45:30;99914.22;;;2.50;50.09
54592;BME280;40488;48.558;18.150;2023-04-04T05:48:00;99908.56;;;2.57;49.94
54592;BME280;40488;48.558;18.150;2023-04-04T05:50:32;99913.00;;;2.64;49.38
54592;BME280;40488;48.558;18.150;2023-04-04T05:53:04;99905.56;;;2.67;49.42
54592;BME280;40488;48.558;18.150;2023-04-04T05:55:34;99919.31;;;2.76;48.98
54592;BME280;40488;48.558;18.150;2023-04-04T05:58:03;99913.75;;;2.86;48.56
54592;BME280;40488;48.558;18.150;2023-04-04T06:00:44;99913.25;;;2.96;48.20
54592;BME280;40488;48.558;18.150;2023-04-04T06:03:13;99912.56;;;3.00;47.47
54592;BME280;40488;48.558;18.150;2023-04-04T06:05:49;99920.31;;;3.06;46.95
54592;BME280;40488;48.558;18.150;2023-04-04T06:08:20;99921.22;;;3.08;46.07
54592;BME280;40488;48.558;18.150;2023-04-04T06:10:50;99921.34;;;3.12;46.15
54592;BME280;40488;48.558;18.150;2023-04-04T06:13:22;99916.06;;;3.30;45.66
54592;BME280;40488;48.558;18.150;2023-04-04T06:15:56;99912.50;;;3.50;45.37
54592;BME280;40488;48.558;18.150;2023-04-04T06:18:25;99916.72;;;3.51;44.52
54592;BME280;40488;48.558;18.150;2023-04-04T06:20:54;99912.44;;;3.49;44.46
54592;BME280;40488;48.558;18.150;2023-04-04T06:23:23;99919.31;;;3.53;44.12
54592;BME280;40488;48.558;18.150;2023-04-04T06:25:53;99916.84;;;3.56;44.66
54592;BME280;40488;48.558;18.150;2023-04-04T06:28:23;99914.97;;;3.77;45.05
54592;BME280;40488;48.558;18.150;2023-04-04T06:30:52;99916.41;;;3.95;44.95
54592;BME280;40488;48.558;18.150;2023-04-04T06:33:28;99910.50;;;4.25;44.27
54592;BME280;40488;48.558;18.150;2023-04-04T06:35:56;99912.53;;;4.38;43.97
54592;BME280;40488;48.558;18.150;2023-04-04T06:38:25;99908.63;;;4.49;43.83
54592;BME280;40488;48.558;18.150;2023-04-04T06:41:00;99915.44;;;4.51;43.00
54592;BME280;40488;48.558;18.150;2023-04-04T06:43:29;99909.22;;;4.39;43.27
54592;BME280;40488;48.558;18.150;2023-04-04T06:45:59;99913.56;;;4.44;42.60
54592;BME280;40488;48.558;18.150;2023-04-04T06:48:28;99909.63;;;4.54;42.63
54592;BME280;40488;48.558;18.150;2023-04-04T06:50:57;99907.66;;;4.75;42.47
54592;BME280;40488;48.558;18.150;2023-04-04T06:53:26;99907.25;;;4.91;42.39
54592;BME280;40488;48.558;18.150;2023-04-04T06:55:55;99917.34;;;4.91;41.96
54592;BME280;40488;48.558;18.150;2023-04-04T06:58:25;99919.78;;;4.88;41.55
54592;BME280;40488;48.558;18.150;2023-04-04T07:00:54;99920.78;;;4.93;41.82
54592;BME280;40488;48.558;18.150;2023-04-04T07:03:26;99923.28;;;4.92;41.10
54592;BME280;40488;48.558;18.150;2023-04-04T07:05:55;99915.63;;;4.90;40.55
54592;BME280;40488;48.558;18.150;2023-04-04T07:08:23;99915.53;;;4.87;40.61
54592;BME280;40488;48.558;18.150;2023-04-04T07:10:55;99918.66;;;5.10;41.30
54592;BME280;40488;48.558;18.150;2023-04-04T07:13:25;99918.19;;;5.24;40.76
54592;BME280;40488;48.558;18.150;2023-04-04T07:15:54;99911.47;;;5.26;40.90
54592;BME280;40488;48.558;18.150;2023-04-04T07:18:23;99918.41;;;5.33;40.47
54592;BME280;40488;48.558;18.150;2023-04-04T07:20:52;99923.47;;;5.33;40.36
54592;BME280;40488;48.558;18.150;2023-04-04T07:23:20;99916.22;;;5.49;40.24
54592;BME280;40488;48.558;18.150;2023-04-04T07:25:52;99909.59;;;5.54;39.51
54592;BME280;40488;48.558;18.150;2023-04-04T07:28:21;99915.47;;;5.53;39.58
54592;BME280;40488;48.558;18.150;2023-04-04T07:30:51;99917.41;;;5.63;39.76
54592;BME280;40488;48.558;18.150;2023-04-04T07:33:20;99909.03;;;5.67;39.85
54592;BME280;40488;48.558;18.150;2023-04-04T07:35:48;99910.88;;;5.74;39.65
54592;BME280;40488;48.558;18.150;2023-04-04T07:38:18;99895.69;;;5.74;39.39
54592;BME280;40488;48.558;18.150;2023-04-04T07:40:47;99905.97;;;5.80;39.65
54592;BME280;40488;48.558;18.150;2023-04-04T07:43:16;99896.22;;;5.95;40.01
54592;BME280;40488;48.558;18.150;2023-04-04T07:45:45;99902.44;;;6.11;39.67
54592;BME280;40488;48.558;18.150;2023-04-04T07:48:15;99904.81;;;6.03;39.39
54592;BME280;40488;48.558;18.150;2023-04-04T07:50:46;99901.56;;;6.10;39.57
54592;BME280;40488;48.558;18.150;2023-04-04T07:53:15;99892.38;;;6.14;39.13
54592;BME280;40488;48.558;18.150;2023-04-04T07:55:44;99912.03;;;6.25;39.04
54592;BME280;40488;48.558;18.150;2023-04-04T07:58:12;99908.44;;;6.14;38.82
54592;BME280;40488;48.558;18.150;2023-04-04T08:00:41;99902.25;;;6.01;38.62
54592;BME280;40488;48.558;18.150;2023-04-04T08:03:10;99919.13;;;6.01;38.50
54592;BME280;40488;48.558;18.150;2023-04-04T08:05:42;99927.34;;;5.91;38.33
54592;BME280;40488;48.558;18.150;2023-04-04T08:08:11;99922.19;;;5.88;37.96
54592;BME280;40488;48.558;18.150;2023-04-04T08:10:40;99905.91;;;6.16;38.32
54592;BME280;40488;48.558;18.150;2023-04-04T08:13:09;99914.97;;;6.46;38.37
54592;BME280;40488;48.558;18.150;2023-04-04T08:15:38;99900.00;;;6.58;37.75
54592;BME280;40488;48.558;18.150;2023-04-04T08:18:07;99908.63;;;6.66;37.20
54592;BME280;40488;48.558;18.150;2023-04-04T08:20:35;99893.28;;;6.60;37.10
54592;BME280;40488;48.558;18.150;2023-04-04T08:23:07;99899.19;;;6.59;36.78
54592;BME280;40488;48.558;18.150;2023-04-04T08:25:36;99894.50;;;6.81;36.66
54592;BME280;40488;48.558;18.150;2023-04-04T08:28:05;99886.03;;;6.82;36.73
54592;BME280;40488;48.558;18.150;2023-04-04T08:30:34;99904.63;;;6.81;36.75
54592;BME280;40488;48.558;18.150;2023-04-04T08:33:03;99892.69;;;6.73;36.29
54592;BME280;40488;48.558;18.150;2023-04-04T08:35:33;99904.34;;;6.65;35.83
54592;BME280;40488;48.558;18.150;2023-04-04T08:38:01;99897.69;;;6.70;35.74
54592;BME280;40488;48.558;18.150;2023-04-04T08:40:34;99904.78;;;6.90;35.74
54592;BME280;40488;48.558;18.150;2023-04-04T08:43:05;99913.22;;;6.89;35.67
54592;BME280;40488;48.558;18.150;2023-04-04T08:45:35;99891.78;;;7.21;36.77
54592;BME280;40488;48.558;18.150;2023-04-04T08:48:07;99891.78;;;7.19;35.62
54592;BME280;40488;48.558;18.150;2023-04-04T08:50:38;99891.78;;;7.21;35.46
54592;BME280;40488;48.558;18.150;2023-04-04T08:53:10;99881.09;;;7.40;35.27
54592;BME280;40488;48.558;18.150;2023-04-04T08:55:41;99873.47;;;7.40;35.11
54592;BME280;40488;48.558;18.150;2023-04-04T08:58:10;99867.72;;;7.50;34.75
54592;BME280;40488;48.558;18.150;2023-04-04T09:00:39;99862.84;;;7.67;35.31
54592;BME280;40488;48.558;18.150;2023-04-04T09:03:14;99852.06;;;7.81;34.68
54592;BME280;40488;48.558;18.150;2023-04-04T09:05:48;99860.47;;;7.77;34.36
54592;BME280;40488;48.558;18.150;2023-04-04T09:08:17;99851.66;;;7.53;34.17
54592;BME280;40488;48.558;18.150;2023-04-04T09:10:48;99861.94;;;7.63;34.67
54592;BME280;40488;48.558;18.150;2023-04-04T09:13:17;99870.63;;;7.77;34.83
54592;BME280;40488;48.558;18.150;2023-04-04T09:15:48;99862.06;;;7.69;33.90
54592;BME280;40488;48.558;18.150;2023-04-04T09:18:17;99853.09;;;7.37;33.76
54592;BME280;40488;48.558;18.150;2023-04-04T09:20:47;99857.03;;;7.72;34.56
54592;BME280;40488;48.558;18.150;2023-04-04T09:23:16;99874.88;;;7.80;34.13
54592;BME280;40488;48.558;18.150;2023-04-04T09:25:49;99863.63;;;7.61;33.92
54592;BME280;40488;48.558;18.150;2023-04-04T09:28:31;99866.78;;;7.45;33.22
54592;BME280;40488;48.558;18.150;2023-04-04T09:31:01;99869.00;;;7.25;33.11
54592;BME280;40488;48.558;18.150;2023-04-04T09:33:33;99871.44;;;7.18;33.71
54592;BME280;40488;48.558;18.150;2023-04-04T09:36:06;99880.69;;;7.14;33.58
54592;BME280;40488;48.558;18.150;2023-04-04T09:38:38;99858.97;;;7.33;33.97
54592;BME280;40488;48.558;18.150;2023-04-04T09:41:14;99859.28;;;7.54;34.74
54592;BME280;40488;48.558;18.150;2023-04-04T09:43:44;99856.25;;;7.79;34.95
54592;BME280;40488;48.558;18.150;2023-04-04T09:46:13;99857.59;;;8.18;36.23
54592;BME280;40488;48.558;18.150;2023-04-04T09:48:48;99859.66;;;8.49;36.20
54592;BME280;40488;48.558;18.150;2023-04-04T09:51:18;99859.84;;;8.67;35.97
54592;BME280;40488;48.558;18.150;2023-04-04T09:53:47;99852.91;;;8.49;36.23
54592;BME280;40488;48.558;18.150;2023-04-04T09:56:18;99856.25;;;8.47;34.76
54592;BME280;40488;48.558;18.150;2023-04-04T09:58:48;99853.75;;;8.51;35.01
54592;BME280;40488;48.558;18.150;2023-04-04T10:01:20;99844.19;;;8.31;35.28
54592;BME280;40488;48.558;18.150;2023-04-04T10:03:51;99842.50;;;8.30;35.98
54592;BME280;40488;48.558;18.150;2023-04-04T10:06:20;99838.06;;;8.15;35.52
54592;BME280;40488;48.558;18.150;2023-04-04T10:08:49;99839.09;;;8.29;35.63
54592;BME280;40488;48.558;18.150;2023-04-04T10:11:29;99832.63;;;8.60;36.28
54592;BME280;40488;48.558;18.150;2023-04-04T10:14:00;99840.22;;;8.57;36.47
54592;BME280;40488;48.558;18.150;2023-04-04T10:16:33;99831.69;;;8.50;35.14
54592;BME280;40488;48.558;18.150;2023-04-04T10:19:04;99846.09;;;8.48;35.81
54592;BME280;40488;48.558;18.150;2023-04-04T10:21:35;99830.75;;;8.41;34.70
54592;BME280;40488;48.558;18.150;2023-04-04T10:24:05;99834.66;;;8.13;35.71
54592;BME280;40488;48.558;18.150;2023-04-04T10:26:37;99833.56;;;7.94;35.92
54592;BME280;40488;48.558;18.150;2023-04-04T10:29:07;99828.53;;;7.97;35.46
54592;BME280;40488;48.558;18.150;2023-04-04T10:31:38;99837.78;;;7.92;35.38
54592;BME280;40488;48.558;18.150;2023-04-04T10:34:16;99829.91;;;7.71;35.28
54592;BME280;40488;48.558;18.150;2023-04-04T10:36:49;99844.47;;;7.86;36.23
54592;BME280;40488;48.558;18.150;2023-04-04T10:42:38;99830.25;;;8.01;36.42
54592;BME280;40488;48.558;18.150;2023-04-04T10:45:08;99819.63;;;8.33;35.92
54592;BME280;40488;48.558;18.150;2023-04-04T10:47:48;99812.13;;;8.45;35.52
54592;BME280;40488;48.558;18.150;2023-04-04T10:50:19;99807.13;;;8.51;34.75
54592;BME280;40488;48.558;18.150;2023-04-04T10:52:48;99820.91;;;8.77;35.43
54592;BME280;40488;48.558;18.150;2023-04-04T10:55:18;99814.41;;;9.09;34.99
54592;BME280;40488;48.558;18.150;2023-04-04T10:57:49;99811.06;;;9.16;34.64
54592;BME280;40488;48.558;18.150;2023-04-04T11:00:21;99816.13;;;9.13;34.22
54592;BME280;40488;48.558;18.150;2023-04-04T11:02:54;99815.13;;;8.95;35.13
54592;BME280;40488;48.558;18.150;2023-04-04T11:05:25;99833.94;;;9.13;34.23
54592;BME280;40488;48.558;18.150;2023-04-04T11:07:57;99812.81;;;9.23;33.27
54592;BME280;40488;48.558;18.150;2023-04-04T11:10:30;99802.59;;;9.20;33.58
54592;BME280;40488;48.558;18.150;2023-04-04T11:13:07;99804.38;;;9.36;34.52
54592;BME280;40488;48.558;18.150;2023-04-04T11:15:45;99792.56;;;9.48;35.01
54592;BME280;40488;48.558;18.150;2023-04-04T11:18:15;99802.75;;;9.51;34.87
54592;BME280;40488;48.558;18.150;2023-04-04T11:21:00;99794.25;;;9.49;34.42
54592;BME280;40488;48.558;18.150;2023-04-04T11:26:40;99800.31;;;9.69;34.08
54592;BME280;40488;48.558;18.150;2023-04-04T11:29:20;99791.78;;;9.61;34.01
54592;BME280;40488;48.558;18.150;2023-04-04T11:31:51;99789.16;;;9.42;34.21
54592;BME280;40488;48.558;18.150;2023-04-04T11:34:30;99785.69;;;9.34;34.42
54592;BME280;40488;48.558;18.150;2023-04-04T11:37:14;99784.06;;;9.49;34.67
54592;BME280;40488;48.558;18.150;2023-04-04T11:39:47;99787.41;;;9.38;34.26
54592;BME280;40488;48.558;18.150;2023-04-04T11:42:23;99781.25;;;9.02;33.38
54592;BME280;40488;48.558;18.150;2023-04-04T11:45:03;99775.31;;;9.04;33.94
54592;BME280;40488;48.558;18.150;2023-04-04T11:47:33;99774.66;;;9.38;34.21
54592;BME280;40488;48.558;18.150;2023-04-04T11:50:07;99767.88;;;9.37;34.47
54592;BME280;40488;48.558;18.150;2023-04-04T11:52:36;99771.41;;;9.61;34.17
54592;BME280;40488;48.558;18.150;2023-04-04T11:55:14;99765.41;;;9.50;33.77
54592;BME280;40488;48.558;18.150;2023-04-04T11:57:45;99767.00;;;9.32;33.43
54592;BME280;40488;48.558;18.150;2023-04-04T12:00:29;99777.16;;;9.23;33.64
54592;BME280;40488;48.558;18.150;2023-04-04T12:02:58;99776.28;;;9.23;34.33
54592;BME280;40488;48.558;18.150;2023-04-04T12:05:28;99766.97;;;9.23;33.33
54592;BME280;40488;48.558;18.150;2023-04-04T12:07:58;99775.28;;;8.98;33.11
54592;BME280;40488;48.558;18.150;2023-04-04T12:10:30;99766.88;;;9.11;33.57
54592;BME280;40488;48.558;18.150;2023-04-04T12:13:00;99763.38;;;8.94;33.40
54592;BME280;40488;48.558;18.150;2023-04-04T12:15:30;99767.88;;;9.37;34.03
54592;BME280;40488;48.558;18.150;2023-04-04T12:18:00;99757.81;;;9.62;33.96
54592;BME280;40488;48.558;18.150;2023-04-04T12:20:29;99752.59;;;9.39;33.99
54592;BME280;40488;48.558;18.150;2023-04-04T12:22:59;99750.78;;;9.15;33.24
54592;BME280;40488;48.558;18.150;2023-04-04T12:25:28;99753.28;;;9.12;33.35
54592;BME280;40488;48.558;18.150;2023-04-04T12:28:01;99751.75;;;9.35;33.72
54592;BME280;40488;48.558;18.150;2023-04-04T12:30:33;99748.31;;;9.33;33.43
54592;BME280;40488;48.558;18.150;2023-04-04T12:33:02;99741.50;;;9.23;33.81
54592;BME280;40488;48.558;18.150;2023-04-04T12:35:31;99739.75;;;9.13;33.94
54592;BME280;40488;48.558;18.150;2023-04-04T12:38:01;99750.75;;;9.11;33.76
54592;BME280;40488;48.558;18.150;2023-04-04T12:40:34;99739.75;;;9.13;33.15
54592;BME280;40488;48.558;18.150;2023-04-04T12:43:05;99737.22;;;9.18;33.08
54592;BME280;40488;48.558;18.150;2023-04-04T12:45:39;99733.94;;;9.40;33.33
54592;BME280;40488;48.558;18.150;2023-04-04T12:48:10;99739.06;;;9.46;32.95
54592;BME280;40488;48.558;18.150;2023-04-04T12:50:51;99749.16;;;9.29;33.36
54592;BME280;40488;48.558;18.150;2023-04-04T12:53:22;99750.94;;;9.44;33.67
54592;BME280;40488;48.558;18.150;2023-04-04T12:55:55;99742.56;;;9.72;33.61
54592;BME280;40488;48.558;18.150;2023-04-04T12:58:28;99729.72;;;9.47;32.61
54592;BME280;40488;48.558;18.150;2023-04-04T13:00:59;99743.22;;;9.30;34.02
54592;BME280;40488;48.558;18.150;2023-04-04T13:03:29;99735.63;;;9.39;33.46
54592;BME280;40488;48.558;18.150;2023-04-04T13:05:58;99748.31;;;9.33;33.59
54592;BME280;40488;48.558;18.150;2023-04-04T13:08:27;99745.78;;;9.33;33.71
54592;BME280;40488;48.558;18.150;2023-04-04T13:10:57;99738.31;;;9.67;33.71
54592;BME280;40488;48.558;18.150;2023-04-04T13:13:33;99711.00;;;9.41;33.87
54592;BME280;40488;48.558;18.150;2023-04-04T13:16:05;99748.22;;;9.15;33.13
54592;BME280;40488;48.558;18.150;2023-04-04T13:18:37;99748.25;;;9.21;33.77
54592;BME280;40488;48.558;18.150;2023-04-04T13:21:10;99755.19;;;9.47;33.92
54592;BME280;40488;48.558;18.150;2023-04-04T13:23:40;99760.38;;;9.62;34.50
54592;BME280;40488;48.558;18.150;2023-04-04T13:26:09;99761.91;;;9.32;33.57